sensor_id;sensor_type;location;lat;lon;timestamp;pressure;altitude;pressure_sealevel;temperature;humidity
43420;BME280;29017;51.514;-0.178;2022-12-10T00:02:08;100494.81;;;3.41;83.14
43420;BME280;29017;51.514;-0.178;2022-12-10T00:04:35;100497.31;;;3.42;83.04
43420;BME280;29017;51.514;-0.178;2022-12-10T00:07:02;100500.16;;;3.39;83.16
43420;BME280;29017;51.514;-0.178;2022-12-10T00:09:30;100491.38;;;3.40;83.06
43420;BME280;29017;51.514;-0.178;2022-12-10T00:11:57;100501.91;;;3.39;83.21
43420;BME280;29017;51.514;-0.178;2022-12-10T00:14:23;100503.59;;;3.40;83.27
43420;BME280;29017;51.514;-0.178;2022-12-10T00:16:50;100499.31;;;3.39;83.16
43420;BME280;29017;51.514;-0.178;2022-12-10T00:19:17;100499.31;;;3.39;83.44
43420;BME280;29017;51.514;-0.178;2022-12-10T00:21:44;100502.63;;;3.41;82.83
43420;BME280;29017;51.514;-0.178;2022-12-10T00:24:12;100499.06;;;3.42;82.75
43420;BME280;29017;51.514;-0.178;2022-12-10T00:26:39;100501.09;;;3.38;82.66
43420;BME280;29017;51.514;-0.178;2022-12-10T00:29:07;100507.13;;;3.39;82.83
43420;BME280;29017;51.514;-0.178;2022-12-10T00:31:35;100503.69;;;3.38;82.90
43420;BME280;29017;51.514;-0.178;2022-12-10T00:34:03;100500.25;;;3.38;82.81
43420;BME280;29017;51.514;-0.178;2022-12-10T00:36:33;100500.38;;;3.36;83.25
43420;BME280;29017;51.514;-0.178;2022-12-10T00:39:00;100499.53;;;3.36;83.05
43420;BME280;29017;51.514;-0.178;2022-12-10T00:41:28;100496.09;;;3.35;82.77
43420;BME280;29017;51.514;-0.178;2022-12-10T00:43:55;100502.38;;;3.33;82.88
43420;BME280;29017;51.514;-0.178;2022-12-10T00:46:22;100502.72;;;3.28;82.69
43420;BME280;29017;51.514;-0.178;2022-12-10T00:48:48;100501.41;;;3.23;82.30
43420;BME280;29017;51.514;-0.178;2022-12-10T00:51:17;100509.44;;;3.20;82.44
43420;BME280;29017;51.514;-0.178;2022-12-10T00:53:44;100506.13;;;3.18;82.78
43420;BME280;29017;51.514;-0.178;2022-12-10T00:56:12;100505.53;;;3.14;82.63
43420;BME280;29017;51.514;-0.178;2022-12-10T00:58:40;100512.00;;;3.09;82.72
43420;BME280;29017;51.514;-0.178;2022-12-10T01:01:11;100523.31;;;3.08;82.84
43420;BME280;29017;51.514;-0.178;2022-12-10T01:03:38;100511.16;;;3.08;83.49
43420;BME280;29017;51.514;-0.178;2022-12-10T01:06:07;100518.97;;;3.08;83.07
43420;BME280;29017;51.514;-0.178;2022-12-10T01:08:34;100516.47;;;3.07;83.27
43420;BME280;29017;51.514;-0.178;2022-12-10T01:11:01;100522.50;;;3.07;83.01
43420;BME280;29017;51.514;-0.178;2022-12-10T01:13:28;100517.41;;;3.06;83.04
43420;BME280;29017;51.514;-0.178;2022-12-10T01:15:55;100517.53;;;3.04;83.17
43420;BME280;29017;51.514;-0.178;2022-12-10T01:18:22;100513.03;;;3.06;83.58
43420;BME280;29017;51.514;-0.178;2022-12-10T01:20:48;100525.19;;;3.06;83.30
43420;BME280;29017;51.514;-0.178;2022-12-10T01:23:15;100507.00;;;3.06;83.02
43420;BME280;29017;51.514;-0.178;2022-12-10T01:25:42;100522.50;;;3.07;83.37
43420;BME280;29017;51.514;-0.178;2022-12-10T01:28:09;100525.00;;;3.09;83.52
43420;BME280;29017;51.514;-0.178;2022-12-10T01:30:35;100522.41;;;3.09;83.90
43420;BME280;29017;51.514;-0.178;2022-12-10T01:33:02;100523.66;;;3.03;83.61
43420;BME280;29017;51.514;-0.178;2022-12-10T01:35:29;100525.66;;;2.99;83.93
43420;BME280;29017;51.514;-0.178;2022-12-10T01:37:56;100522.94;;;3.01;83.84
43420;BME280;29017;51.514;-0.178;2022-12-10T01:40:22;100518.47;;;3.03;83.84
43420;BME280;29017;51.514;-0.178;2022-12-10T01:42:49;100519.41;;;3.02;83.35
43420;BME280;29017;51.514;-0.178;2022-12-10T01:45:16;100524.00;;;2.98;83.04
43420;BME280;29017;51.514;-0.178;2022-12-10T01:47:43;100517.25;;;2.96;83.20
43420;BME280;29017;51.514;-0.178;2022-12-10T01:50:10;100519.97;;;2.94;82.88
43420;BME280;29017;51.514;-0.178;2022-12-10T01:52:37;100523.38;;;2.95;83.03
43420;BME280;29017;51.514;-0.178;2022-12-10T01:55:07;100524.22;;;2.95;83.17
43420;BME280;29017;51.514;-0.178;2022-12-10T01:57:34;100516.56;;;2.94;82.90
43420;BME280;29017;51.514;-0.178;2022-12-10T02:00:03;100514.88;;;2.93;82.81
43420;BME280;29017;51.514;-0.178;2022-12-10T02:15:08;100524.28;;;2.83;85.34
43420;BME280;29017;51.514;-0.178;2022-12-10T02:17:38;100534.56;;;2.84;85.13
43420;BME280;29017;51.514;-0.178;2022-12-10T02:20:07;100526.88;;;2.83;84.47
43420;BME280;29017;51.514;-0.178;2022-12-10T02:22:39;100537.19;;;2.84;84.41
43420;BME280;29017;51.514;-0.178;2022-12-10T02:25:06;100526.78;;;2.84;84.40
43420;BME280;29017;51.514;-0.178;2022-12-10T02:27:42;100533.63;;;2.85;84.52
43420;BME280;29017;51.514;-0.178;2022-12-10T02:30:13;100532.91;;;2.83;84.49
43420;BME280;29017;51.514;-0.178;2022-12-10T02:32:40;100534.09;;;2.79;83.79
43420;BME280;29017;51.514;-0.178;2022-12-10T02:35:11;100532.28;;;2.80;84.08
43420;BME280;29017;51.514;-0.178;2022-12-10T02:37:42;100530.66;;;2.79;84.55
43420;BME280;29017;51.514;-0.178;2022-12-10T02:40:13;100533.25;;;2.79;84.26
43420;BME280;29017;51.514;-0.178;2022-12-10T02:42:42;100528.06;;;2.79;84.29
43420;BME280;29017;51.514;-0.178;2022-12-10T02:45:11;100522.03;;;2.78;84.16
43420;BME280;29017;51.514;-0.178;2022-12-10T02:47:38;100525.47;;;2.79;84.07
43420;BME280;29017;51.514;-0.178;2022-12-10T02:50:05;100523.69;;;2.79;84.16
43420;BME280;29017;51.514;-0.178;2022-12-10T02:52:33;100516.59;;;2.81;83.91
43420;BME280;29017;51.514;-0.178;2022-12-10T02:55:00;100512.22;;;2.82;83.85
43420;BME280;29017;51.514;-0.178;2022-12-10T02:57:28;100519.19;;;2.81;83.66
43420;BME280;29017;51.514;-0.178;2022-12-10T03:02:29;100520.13;;;2.80;83.99
43420;BME280;29017;51.514;-0.178;2022-12-10T03:05:02;100513.50;;;2.76;84.10
43420;BME280;29017;51.514;-0.178;2022-12-10T03:10:00;100518.31;;;2.70;83.91
43420;BME280;29017;51.514;-0.178;2022-12-10T03:12:29;100512.75;;;2.63;84.13
43420;BME280;29017;51.514;-0.178;2022-12-10T03:14:58;100518.28;;;2.58;84.85
43420;BME280;29017;51.514;-0.178;2022-12-10T03:17:27;100527.31;;;2.53;85.45
43420;BME280;29017;51.514;-0.178;2022-12-10T03:19:55;100522.34;;;2.50;85.27
43420;BME280;29017;51.514;-0.178;2022-12-10T03:22:22;100517.38;;;2.47;85.45
43420;BME280;29017;51.514;-0.178;2022-12-10T03:24:49;100522.47;;;2.48;85.67
43420;BME280;29017;51.514;-0.178;2022-12-10T03:27:16;100519.88;;;2.48;85.50
43420;BME280;29017;51.514;-0.178;2022-12-10T03:29:46;100519.72;;;2.50;85.53
43420;BME280;29017;51.514;-0.178;2022-12-10T03:32:14;100516.94;;;2.53;86.43
43420;BME280;29017;51.514;-0.178;2022-12-10T03:34:42;100515.88;;;2.55;87.01
43420;BME280;29017;51.514;-0.178;2022-12-10T03:37:10;100515.78;;;2.57;87.01
43420;BME280;29017;51.514;-0.178;2022-12-10T03:39:37;100517.53;;;2.56;86.79
43420;BME280;29017;51.514;-0.178;2022-12-10T03:42:04;100523.56;;;2.57;87.05
43420;BME280;29017;51.514;-0.178;2022-12-10T03:44:34;100517.63;;;2.55;86.17
43420;BME280;29017;51.514;-0.178;2022-12-10T03:47:01;100522.72;;;2.56;85.81
43420;BME280;29017;51.514;-0.178;2022-12-10T03:49:29;100529.69;;;2.56;86.09
43420;BME280;29017;51.514;-0.178;2022-12-10T03:51:56;100529.78;;;2.54;86.35
43420;BME280;29017;51.514;-0.178;2022-12-10T03:54:23;100525.44;;;2.55;86.93
43420;BME280;29017;51.514;-0.178;2022-12-10T03:56:50;100521.06;;;2.55;87.14
43420;BME280;29017;51.514;-0.178;2022-12-10T03:59:16;100510.78;;;2.54;86.77
43420;BME280;29017;51.514;-0.178;2022-12-10T04:01:43;100508.31;;;2.52;85.81
43420;BME280;29017;51.514;-0.178;2022-12-10T04:04:10;100514.34;;;2.53;86.17
43420;BME280;29017;51.514;-0.178;2022-12-10T04:06:38;100507.47;;;2.52;85.91
43420;BME280;29017;51.514;-0.178;2022-12-10T04:09:05;100500.72;;;2.49;85.70
43420;BME280;29017;51.514;-0.178;2022-12-10T04:11:32;100515.47;;;2.49;85.28
43420;BME280;29017;51.514;-0.178;2022-12-10T04:13:58;100515.47;;;2.49;85.02
43420;BME280;29017;51.514;-0.178;2022-12-10T04:16:34;100499.28;;;2.45;84.96
43420;BME280;29017;51.514;-0.178;2022-12-10T04:21:38;100512.38;;;2.44;84.82
43420;BME280;29017;51.514;-0.178;2022-12-10T04:24:14;100503.66;;;2.45;84.86
43420;BME280;29017;51.514;-0.178;2022-12-10T04:26:51;100507.91;;;2.46;84.82
43420;BME280;29017;51.514;-0.178;2022-12-10T04:29:18;100502.72;;;2.46;84.99
43420;BME280;29017;51.514;-0.178;2022-12-10T04:31:45;100502.13;;;2.42;84.76
43420;BME280;29017;51.514;-0.178;2022-12-10T04:34:12;100504.81;;;2.41;84.31
43420;BME280;29017;51.514;-0.178;2022-12-10T04:36:39;100506.81;;;2.37;84.80
43420;BME280;29017;51.514;-0.178;2022-12-10T04:39:06;100516.25;;;2.38;84.72
43420;BME280;29017;51.514;-0.178;2022-12-10T04:41:33;100511.06;;;2.38;84.73
43420;BME280;29017;51.514;-0.178;2022-12-10T04:43:59;100510.25;;;2.38;84.81
43420;BME280;29017;51.514;-0.178;2022-12-10T04:46:27;100523.22;;;2.38;84.97
43420;BME280;29017;51.514;-0.178;2022-12-10T04:48:54;100524.16;;;2.37;84.81
43420;BME280;29017;51.514;-0.178;2022-12-10T04:51:20;100529.25;;;2.38;85.06
43420;BME280;29017;51.514;-0.178;2022-12-10T04:53:47;100524.75;;;2.40;85.07
43420;BME280;29017;51.514;-0.178;2022-12-10T04:56:14;100529.13;;;2.40;84.72
43420;BME280;29017;51.514;-0.178;2022-12-10T04:58:41;100521.31;;;2.40;84.59
43420;BME280;29017;51.514;-0.178;2022-12-10T05:01:08;100518.63;;;2.41;84.74
43420;BME280;29017;51.514;-0.178;2022-12-10T05:03:36;100511.88;;;2.39;84.72
43420;BME280;29017;51.514;-0.178;2022-12-10T05:06:03;100513.03;;;2.35;84.13
43420;BME280;29017;51.514;-0.178;2022-12-10T05:08:30;100506.19;;;2.34;84.12
43420;BME280;29017;51.514;-0.178;2022-12-10T05:11:01;100510.66;;;2.32;84.12
43420;BME280;29017;51.514;-0.178;2022-12-10T05:13:28;100512.53;;;2.30;84.92
43420;BME280;29017;51.514;-0.178;2022-12-10T05:15:55;100508.06;;;2.32;85.23
43420;BME280;29017;51.514;-0.178;2022-12-10T05:18:22;100513.16;;;2.33;86.38
43420;BME280;29017;51.514;-0.178;2022-12-10T05:20:49;100511.28;;;2.35;87.09
43420;BME280;29017;51.514;-0.178;2022-12-10T05:23:15;100509.28;;;2.39;87.51
43420;BME280;29017;51.514;-0.178;2022-12-10T05:28:29;100513.03;;;2.35;86.85
43420;BME280;29017;51.514;-0.178;2022-12-10T05:30:57;100514.94;;;2.33;86.38
43420;BME280;29017;51.514;-0.178;2022-12-10T05:33:24;100507.13;;;2.33;85.42
43420;BME280;29017;51.514;-0.178;2022-12-10T05:35:55;100513.03;;;2.35;85.55
43420;BME280;29017;51.514;-0.178;2022-12-10T05:38:22;100506.31;;;2.32;84.86
43420;BME280;29017;51.514;-0.178;2022-12-10T05:40:49;100508.41;;;2.27;84.80
43420;BME280;29017;51.514;-0.178;2022-12-10T05:43:22;100514.63;;;2.25;84.73
43420;BME280;29017;51.514;-0.178;2022-12-10T05:45:49;100519.09;;;2.23;84.68
43420;BME280;29017;51.514;-0.178;2022-12-10T05:48:15;100519.09;;;2.23;84.48
43420;BME280;29017;51.514;-0.178;2022-12-10T05:50:43;100520.75;;;2.24;84.93
43420;BME280;29017;51.514;-0.178;2022-12-10T05:53:10;100517.34;;;2.23;84.70
43420;BME280;29017;51.514;-0.178;2022-12-10T05:55:36;100520.88;;;2.22;84.56
43420;BME280;29017;51.514;-0.178;2022-12-10T05:58:03;100524.28;;;2.23;84.56
43420;BME280;29017;51.514;-0.178;2022-12-10T06:00:30;100524.28;;;2.23;84.86
43420;BME280;29017;51.514;-0.178;2022-12-10T06:02:57;100526.88;;;2.23;84.51
43420;BME280;29017;51.514;-0.178;2022-12-10T06:05:24;100519.94;;;2.23;84.63
43420;BME280;29017;51.514;-0.178;2022-12-10T06:07:51;100527.50;;;2.26;84.62
43420;BME280;29017;51.514;-0.178;2022-12-10T06:10:18;100519.94;;;2.23;84.86
43420;BME280;29017;51.514;-0.178;2022-12-10T06:12:44;100525.22;;;2.22;84.71
43420;BME280;29017;51.514;-0.178;2022-12-10T06:15:11;100527.00;;;2.21;84.65
43420;BME280;29017;51.514;-0.178;2022-12-10T06:17:38;100520.03;;;2.22;84.80
43420;BME280;29017;51.514;-0.178;2022-12-10T06:20:05;100531.44;;;2.19;84.67
43420;BME280;29017;51.514;-0.178;2022-12-10T06:22:33;100525.53;;;2.17;84.62
43420;BME280;29017;51.514;-0.178;2022-12-10T06:24:59;100523.97;;;2.14;84.27
43420;BME280;29017;51.514;-0.178;2022-12-10T06:27:28;100527.41;;;2.15;84.45
43420;BME280;29017;51.514;-0.178;2022-12-10T06:29:55;100520.56;;;2.14;84.63
43420;BME280;29017;51.514;-0.178;2022-12-10T06:32:23;100522.44;;;2.12;85.22
43420;BME280;29017;51.514;-0.178;2022-12-10T06:34:50;100525.38;;;2.07;85.93
43420;BME280;29017;51.514;-0.178;2022-12-10T06:37:17;100524.41;;;2.08;86.73
43420;BME280;29017;51.514;-0.178;2022-12-10T06:39:44;100534.78;;;2.08;87.44
43420;BME280;29017;51.514;-0.178;2022-12-10T06:42:11;100543.28;;;2.10;87.67
43420;BME280;29017;51.514;-0.178;2022-12-10T06:44:37;100534.06;;;2.06;87.09
43420;BME280;29017;51.514;-0.178;2022-12-10T06:47:04;100528.88;;;2.06;86.77
43420;BME280;29017;51.514;-0.178;2022-12-10T06:49:31;100522.97;;;2.04;86.83
43420;BME280;29017;51.514;-0.178;2022-12-10T06:51:58;100533.25;;;2.06;86.43
43420;BME280;29017;51.514;-0.178;2022-12-10T06:54:25;100533.34;;;2.04;86.67
43420;BME280;29017;51.514;-0.178;2022-12-10T06:56:52;100525.88;;;2.00;86.43
43420;BME280;29017;51.514;-0.178;2022-12-10T06:59:18;100524.03;;;2.02;87.02
43420;BME280;29017;51.514;-0.178;2022-12-10T07:01:46;100528.56;;;1.98;86.87
43420;BME280;29017;51.514;-0.178;2022-12-10T07:04:14;100535.53;;;1.98;86.15
43420;BME280;29017;51.514;-0.178;2022-12-10T07:06:41;100532.94;;;1.98;86.11
43420;BME280;29017;51.514;-0.178;2022-12-10T07:09:08;100537.19;;;1.99;85.64
43420;BME280;29017;51.514;-0.178;2022-12-10T07:11:36;100538.84;;;2.00;85.73
43420;BME280;29017;51.514;-0.178;2022-12-10T07:14:03;100536.16;;;2.01;85.50
43420;BME280;29017;51.514;-0.178;2022-12-10T07:16:30;100542.19;;;2.02;85.27
43420;BME280;29017;51.514;-0.178;2022-12-10T07:18:58;100540.41;;;2.02;85.52
43420;BME280;29017;51.514;-0.178;2022-12-10T07:21:30;100544.53;;;2.05;85.91
43420;BME280;29017;51.514;-0.178;2022-12-10T07:23:59;100542.88;;;2.04;86.06
43420;BME280;29017;51.514;-0.178;2022-12-10T07:26:28;100543.72;;;2.04;85.76
43420;BME280;29017;51.514;-0.178;2022-12-10T07:28:55;100544.44;;;2.06;85.95
43420;BME280;29017;51.514;-0.178;2022-12-10T07:31:22;100546.94;;;2.08;85.68
43420;BME280;29017;51.514;-0.178;2022-12-10T07:33:50;100544.13;;;2.11;85.39
43420;BME280;29017;51.514;-0.178;2022-12-10T07:36:18;100547.47;;;2.13;85.12
43420;BME280;29017;51.514;-0.178;2022-12-10T07:38:45;100547.47;;;2.13;84.86
43420;BME280;29017;51.514;-0.178;2022-12-10T07:41:13;100552.75;;;2.11;84.91
43420;BME280;29017;51.514;-0.178;2022-12-10T07:43:41;100539.03;;;2.09;84.68
43420;BME280;29017;51.514;-0.178;2022-12-10T07:46:09;100543.38;;;2.09;84.59
43420;BME280;29017;51.514;-0.178;2022-12-10T07:48:37;100541.63;;;2.09;84.91
43420;BME280;29017;51.514;-0.178;2022-12-10T07:51:04;100539.97;;;2.08;84.77
43420;BME280;29017;51.514;-0.178;2022-12-10T07:53:31;100541.63;;;2.09;84.71
43420;BME280;29017;51.514;-0.178;2022-12-10T07:55:58;100543.19;;;2.12;84.80
43420;BME280;29017;51.514;-0.178;2022-12-10T07:58:25;100551.59;;;2.15;85.02
43420;BME280;29017;51.514;-0.178;2022-12-10T08:00:52;100549.00;;;2.15;84.93
43420;BME280;29017;51.514;-0.178;2022-12-10T08:03:19;100550.75;;;2.15;84.78
43420;BME280;29017;51.514;-0.178;2022-12-10T08:05:46;100546.31;;;2.17;85.11
43420;BME280;29017;51.514;-0.178;2022-12-10T08:08:13;100547.31;;;2.14;84.51
43420;BME280;29017;51.514;-0.178;2022-12-10T08:10:40;100550.75;;;2.15;84.85
43420;BME280;29017;51.514;-0.178;2022-12-10T08:13:07;100551.50;;;2.17;84.59
43420;BME280;29017;51.514;-0.178;2022-12-10T08:15:33;100552.94;;;2.21;84.89
43420;BME280;29017;51.514;-0.178;2022-12-10T08:18:00;100556.25;;;2.23;84.73
43420;BME280;29017;51.514;-0.178;2022-12-10T08:20:27;100552.63;;;2.26;84.63
43420;BME280;29017;51.514;-0.178;2022-12-10T08:22:54;100555.94;;;2.28;84.95
43420;BME280;29017;51.514;-0.178;2022-12-10T08:25:20;100565.06;;;2.33;86.42
43420;BME280;29017;51.514;-0.178;2022-12-10T08:27:47;100570.13;;;2.35;86.17
43420;BME280;29017;51.514;-0.178;2022-12-10T08:30:14;100573.78;;;2.32;85.79
43420;BME280;29017;51.514;-0.178;2022-12-10T08:32:41;100574.72;;;2.31;85.72
43420;BME280;29017;51.514;-0.178;2022-12-10T08:35:08;100581.66;;;2.31;85.69
43420;BME280;29017;51.514;-0.178;2022-12-10T08:37:35;100578.16;;;2.32;85.76
43420;BME280;29017;51.514;-0.178;2022-12-10T08:40:02;100571.38;;;2.29;85.87
43420;BME280;29017;51.514;-0.178;2022-12-10T08:42:29;100577.53;;;2.28;85.34
43420;BME280;29017;51.514;-0.178;2022-12-10T08:44:56;100586.13;;;2.29;85.70
43420;BME280;29017;51.514;-0.178;2022-12-10T08:47:22;100581.75;;;2.29;85.71
43420;BME280;29017;51.514;-0.178;2022-12-10T08:49:49;100576.56;;;2.29;85.40
43420;BME280;29017;51.514;-0.178;2022-12-10T08:52:16;100576.38;;;2.32;85.39
43420;BME280;29017;51.514;-0.178;2022-12-10T08:54:43;100575.44;;;2.33;85.25
43420;BME280;29017;51.514;-0.178;2022-12-10T08:57:09;100578.84;;;2.34;85.44
43420;BME280;29017;51.514;-0.178;2022-12-10T08:59:36;100579.59;;;2.36;85.35
43420;BME280;29017;51.514;-0.178;2022-12-10T09:02:03;100581.84;;;2.40;85.24
43420;BME280;29017;51.514;-0.178;2022-12-10T09:04:30;100584.13;;;2.45;85.04
43420;BME280;29017;51.514;-0.178;2022-12-10T09:06:57;100583.94;;;2.48;85.01
43420;BME280;29017;51.514;-0.178;2022-12-10T09:09:24;100582.78;;;2.52;84.62
43420;BME280;29017;51.514;-0.178;2022-12-10T09:11:51;100580.06;;;2.53;84.94
43420;BME280;29017;51.514;-0.178;2022-12-10T09:14:18;100585.03;;;2.56;84.69
43420;BME280;29017;51.514;-0.178;2022-12-10T09:16:44;100585.78;;;2.58;84.68
43420;BME280;29017;51.514;-0.178;2022-12-10T09:19:11;100581.19;;;2.62;84.49
43420;BME280;29017;51.514;-0.178;2022-12-10T09:21:45;100594.06;;;2.64;85.21
43420;BME280;29017;51.514;-0.178;2022-12-10T09:24:13;100588.16;;;2.62;85.39
43420;BME280;29017;51.514;-0.178;2022-12-10T09:26:40;100585.56;;;2.62;85.30
43420;BME280;29017;51.514;-0.178;2022-12-10T09:29:07;100586.78;;;2.69;86.25
43420;BME280;29017;51.514;-0.178;2022-12-10T09:31:34;100585.72;;;2.71;86.29
43420;BME280;29017;51.514;-0.178;2022-12-10T09:34:00;100589.88;;;2.74;85.89
43420;BME280;29017;51.514;-0.178;2022-12-10T09:36:27;100587.78;;;2.79;85.93
43420;BME280;29017;51.514;-0.178;2022-12-10T09:38:59;100589.31;;;2.81;85.52
43420;BME280;29017;51.514;-0.178;2022-12-10T09:43:58;100590.66;;;2.87;85.11
43420;BME280;29017;51.514;-0.178;2022-12-10T09:51:31;100595.19;;;2.96;86.01
43420;BME280;29017;51.514;-0.178;2022-12-10T09:54:01;100596.63;;;3.00;86.83
43420;BME280;29017;51.514;-0.178;2022-12-10T09:56:32;100598.09;;;3.04;86.70
43420;BME280;29017;51.514;-0.178;2022-12-10T09:59:01;100589.56;;;3.02;86.34
43420;BME280;29017;51.514;-0.178;2022-12-10T10:01:30;100595.25;;;3.07;85.80
43420;BME280;29017;51.514;-0.178;2022-12-10T10:03:59;100597.63;;;3.10;85.56
43420;BME280;29017;51.514;-0.178;2022-12-10T10:06:26;100605.91;;;3.15;85.21
43420;BME280;29017;51.514;-0.178;2022-12-10T10:08:55;100595.31;;;3.18;84.90
43420;BME280;29017;51.514;-0.178;2022-12-10T10:11:25;100594.03;;;3.24;85.19
43420;BME280;29017;51.514;-0.178;2022-12-10T10:13:55;100605.13;;;3.26;84.46
43420;BME280;29017;51.514;-0.178;2022-12-10T10:16:25;100599.72;;;3.29;84.29
43420;BME280;29017;51.514;-0.178;2022-12-10T10:21:21;100611.31;;;3.36;84.83
43420;BME280;29017;51.514;-0.178;2022-12-10T10:23:49;100603.19;;;3.40;85.33
43420;BME280;29017;51.514;-0.178;2022-12-10T10:26:16;100609.00;;;3.44;85.17
43420;BME280;29017;51.514;-0.178;2022-12-10T10:28:43;100602.53;;;3.50;85.30
43420;BME280;29017;51.514;-0.178;2022-12-10T10:31:15;100611.03;;;3.52;84.93
43420;BME280;29017;51.514;-0.178;2022-12-10T10:33:47;100605.63;;;3.55;84.53
43420;BME280;29017;51.514;-0.178;2022-12-10T10:36:15;100605.28;;;3.59;84.37
43420;BME280;29017;51.514;-0.178;2022-12-10T10:38:46;100597.22;;;3.62;83.76
43420;BME280;29017;51.514;-0.178;2022-12-10T10:41:13;100593.34;;;3.68;83.76
43420;BME280;29017;51.514;-0.178;2022-12-10T10:43:42;100591.00;;;3.76;84.60
43420;BME280;29017;51.514;-0.178;2022-12-10T10:48:38;100596.81;;;3.79;83.91
43420;BME280;29017;51.514;-0.178;2022-12-10T10:53:43;100586.25;;;3.81;82.98
43420;BME280;29017;51.514;-0.178;2022-12-10T10:56:15;100590.19;;;3.86;83.06
43420;BME280;29017;51.514;-0.178;2022-12-10T10:58:52;100601.22;;;3.90;83.79
43420;BME280;29017;51.514;-0.178;2022-12-10T11:01:20;100596.59;;;3.94;83.82
43420;BME280;29017;51.514;-0.178;2022-12-10T11:03:49;100596.59;;;3.94;83.84
43420;BME280;29017;51.514;-0.178;2022-12-10T11:06:16;100590.19;;;3.98;83.34
43420;BME280;29017;51.514;-0.178;2022-12-10T11:08:44;100593.19;;;4.04;82.96
43420;BME280;29017;51.514;-0.178;2022-12-10T11:11:12;100584.78;;;4.34;89.81
43420;BME280;29017;51.514;-0.178;2022-12-10T11:13:43;100588.22;;;4.57;90.70
43420;BME280;29017;51.514;-0.178;2022-12-10T11:16:19;100586.75;;;4.64;87.70
43420;BME280;29017;51.514;-0.178;2022-12-10T11:21:24;100583.22;;;4.54;82.34
43420;BME280;29017;51.514;-0.178;2022-12-10T11:23:52;100581.44;;;4.54;81.85
43420;BME280;29017;51.514;-0.178;2022-12-10T11:29:02;100583.94;;;4.56;81.71
43420;BME280;29017;51.514;-0.178;2022-12-10T11:31:39;100591.50;;;4.59;81.35
43420;BME280;29017;51.514;-0.178;2022-12-10T11:36:52;100587.69;;;4.63;82.46
43420;BME280;29017;51.514;-0.178;2022-12-10T11:47:16;100579.38;;;4.80;82.04
43420;BME280;29017;51.514;-0.178;2022-12-10T11:59:46;100573.22;;;4.92;82.53
43420;BME280;29017;51.514;-0.178;2022-12-10T12:02:43;100570.34;;;4.95;82.01
43420;BME280;29017;51.514;-0.178;2022-12-10T12:15:36;100566.63;;;5.09;82.03
43420;BME280;29017;51.514;-0.178;2022-12-10T12:20:37;100563.28;;;5.18;83.37
43420;BME280;29017;51.514;-0.178;2022-12-10T12:25:45;100553.59;;;5.30;82.46
43420;BME280;29017;51.514;-0.178;2022-12-10T12:28:21;100565.31;;;5.35;82.09
43420;BME280;29017;51.514;-0.178;2022-12-10T12:30:54;100560.00;;;5.37;81.19
43420;BME280;29017;51.514;-0.178;2022-12-10T12:36:03;100565.09;;;5.38;81.11
43420;BME280;29017;51.514;-0.178;2022-12-10T12:41:13;100555.34;;;5.40;79.97
43420;BME280;29017;51.514;-0.178;2022-12-10T12:43:45;100561.13;;;5.44;80.34
43420;BME280;29017;51.514;-0.178;2022-12-10T12:46:15;100558.16;;;5.48;80.58
43420;BME280;29017;51.514;-0.178;2022-12-10T12:48:50;100559.94;;;5.48;80.12
43420;BME280;29017;51.514;-0.178;2022-12-10T12:51:23;100551.41;;;5.46;80.38
43420;BME280;29017;51.514;-0.178;2022-12-10T12:53:53;100549.63;;;5.46;80.76
43420;BME280;29017;51.514;-0.178;2022-12-10T12:59:01;100559.41;;;5.54;80.31
43420;BME280;29017;51.514;-0.178;2022-12-10T13:01:35;100557.50;;;5.56;79.42
43420;BME280;29017;51.514;-0.178;2022-12-10T13:04:05;100548.63;;;5.58;79.57
43420;BME280;29017;51.514;-0.178;2022-12-10T13:06:34;100557.69;;;5.64;79.94
43420;BME280;29017;51.514;-0.178;2022-12-10T13:11:39;100560.88;;;5.68;80.18
43420;BME280;29017;51.514;-0.178;2022-12-10T13:21:44;100553.44;;;5.63;80.24
43420;BME280;29017;51.514;-0.178;2022-12-10T13:32:15;100550.31;;;5.69;80.13
43420;BME280;29017;51.514;-0.178;2022-12-10T13:34:42;100554.19;;;5.75;80.01
43420;BME280;29017;51.514;-0.178;2022-12-10T13:39:48;100552.16;;;5.78;79.64
43420;BME280;29017;51.514;-0.178;2022-12-10T13:42:24;100547.38;;;5.83;79.23
43420;BME280;29017;51.514;-0.178;2022-12-10T13:52:36;100541.97;;;5.96;78.49
43420;BME280;29017;51.514;-0.178;2022-12-10T14:00:19;100541.44;;;6.02;78.37
43420;BME280;29017;51.514;-0.178;2022-12-10T14:02:52;100543.94;;;6.04;78.85
43420;BME280;29017;51.514;-0.178;2022-12-10T14:08:04;100542.16;;;6.04;78.83
43420;BME280;29017;51.514;-0.178;2022-12-10T14:10:33;100538.56;;;6.05;78.96
43420;BME280;29017;51.514;-0.178;2022-12-10T14:13:01;100540.34;;;6.05;78.68
43420;BME280;29017;51.514;-0.178;2022-12-10T14:15:28;100536.94;;;6.04;79.38
43420;BME280;29017;51.514;-0.178;2022-12-10T14:20:32;100537.88;;;6.03;78.85
43420;BME280;29017;51.514;-0.178;2022-12-10T14:23:02;100536.22;;;6.02;78.87
43420;BME280;29017;51.514;-0.178;2022-12-10T14:25:41;100539.66;;;6.03;79.08
43420;BME280;29017;51.514;-0.178;2022-12-10T14:28:12;100532.91;;;6.00;79.01
43420;BME280;29017;51.514;-0.178;2022-12-10T14:30:44;100545.84;;;6.01;79.34
43420;BME280;29017;51.514;-0.178;2022-12-10T14:33:12;100536.50;;;5.99;79.59
43420;BME280;29017;51.514;-0.178;2022-12-10T14:35:41;100537.19;;;6.01;80.41
43420;BME280;29017;51.514;-0.178;2022-12-10T14:38:12;100534.56;;;6.01;80.39
43420;BME280;29017;51.514;-0.178;2022-12-10T14:40:43;100534.44;;;6.03;80.75
43420;BME280;29017;51.514;-0.178;2022-12-10T14:45:40;100541.44;;;6.02;80.99
43420;BME280;29017;51.514;-0.178;2022-12-10T14:48:11;100530.19;;;6.01;80.61
43420;BME280;29017;51.514;-0.178;2022-12-10T14:50:38;100537.31;;;5.99;80.80
43420;BME280;29017;51.514;-0.178;2022-12-10T14:53:08;100544.34;;;5.99;80.25
43420;BME280;29017;51.514;-0.178;2022-12-10T14:55:38;100541.28;;;5.94;80.20
43420;BME280;29017;51.514;-0.178;2022-12-10T14:58:05;100539.63;;;5.93;80.27
43420;BME280;29017;51.514;-0.178;2022-12-10T15:00:32;100543.19;;;5.92;80.21
43420;BME280;29017;51.514;-0.178;2022-12-10T15:03:01;100545.69;;;5.93;80.06
43420;BME280;29017;51.514;-0.178;2022-12-10T15:05:33;100546.63;;;5.92;80.01